createdAt,value
2019-04-01T00:01:07.660Z,14.00
2019-04-01T00:03:37.726Z,14.50
2019-04-01T00:06:06.547Z,13.13
2019-04-01T00:08:35.509Z,14.07
2019-04-01T00:11:04.339Z,14.20
2019-04-01T00:13:33.499Z,13.90
2019-04-01T00:16:02.801Z,14.60
2019-04-01T00:18:31.834Z,14.67
2019-04-01T00:21:00.625Z,13.40
2019-04-01T00:23:29.556Z,12.37
2019-04-01T00:25:58.657Z,14.07
2019-04-01T00:28:27.670Z,13.23
2019-04-01T00:30:56.562Z,11.30
2019-04-01T00:33:25.422Z,13.00
2019-04-01T00:35:54.215Z,12.53
2019-04-01T00:38:23.238Z,13.67
2019-04-01T00:40:52.128Z,12.28
2019-04-01T00:43:25.606Z,12.33
2019-04-01T00:45:56.055Z,12.23
2019-04-01T00:48:26.460Z,13.48
2019-04-01T00:50:55.478Z,12.40
2019-04-01T00:53:24.372Z,12.63
2019-04-01T00:55:53.263Z,14.60
2019-04-01T00:58:22.156Z,11.80
2019-04-01T01:00:51.015Z,13.87
2019-04-01T01:03:19.937Z,12.80
2019-04-01T01:05:49.725Z,12.20
2019-04-01T01:08:18.602Z,11.78
2019-04-01T01:10:47.639Z,12.47
2019-04-01T01:13:16.529Z,12.37
2019-04-01T01:15:45.628Z,11.97
2019-04-01T01:18:14.729Z,12.13
2019-04-01T01:20:43.703Z,13.95
2019-04-01T01:23:12.580Z,12.63
2019-04-01T01:25:43.040Z,12.85
2019-04-01T01:28:12.154Z,12.55
2019-04-01T01:30:41.025Z,12.90
2019-04-01T01:33:10.123Z,12.13
2019-04-01T01:35:39.014Z,13.25
2019-04-01T01:38:07.847Z,14.28
2019-04-01T01:40:36.769Z,12.93
2019-04-01T01:43:05.667Z,12.30
2019-04-01T01:45:34.564Z,12.50
2019-04-01T01:48:03.475Z,12.33
2019-04-01T01:50:32.213Z,13.35
2019-04-01T01:53:01.271Z,13.03
2019-04-01T01:55:30.230Z,14.00
2019-04-01T01:57:59.653Z,12.45
2019-04-01T02:00:29.576Z,11.95
2019-04-01T02:02:58.309Z,13.30
2019-04-01T02:05:27.234Z,14.60
2019-04-01T02:07:56.253Z,12.13
2019-04-01T02:10:25.347Z,12.63
2019-04-01T02:12:54.229Z,13.55
2019-04-01T02:15:22.998Z,13.13
2019-04-01T02:17:52.022Z,14.25
2019-04-01T02:20:20.996Z,14.73
2019-04-01T02:22:49.883Z,14.23
2019-04-01T02:25:18.697Z,12.47
2019-04-01T02:27:47.594Z,13.05
2019-04-01T02:30:16.467Z,13.68
2019-04-01T02:32:45.373Z,12.03
2019-04-01T02:35:14.155Z,13.08
2019-04-01T02:37:43.160Z,12.63
2019-04-01T02:40:12.080Z,12.37
2019-04-01T02:42:41.188Z,12.20
2019-04-01T02:45:10.053Z,12.20
2019-04-01T02:47:39.134Z,12.73
2019-04-01T02:50:08.441Z,12.90
2019-04-01T02:52:37.203Z,13.45
2019-04-01T02:55:07.426Z,13.35
2019-04-01T02:57:36.447Z,13.20
2019-04-01T03:00:07.054Z,12.88
2019-04-01T03:02:35.973Z,11.60
2019-04-01T03:05:05.590Z,12.30
2019-04-01T03:07:35.236Z,14.10
2019-04-01T03:10:06.124Z,13.95
2019-04-01T03:12:35.000Z,12.20
2019-04-01T03:15:04.822Z,12.57
2019-04-01T03:17:34.844Z,13.08
2019-04-01T03:20:04.569Z,11.53
2019-04-01T03:22:33.451Z,11.43
2019-04-01T03:25:02.345Z,12.00
2019-04-01T03:27:32.084Z,13.68
2019-04-01T03:30:00.850Z,12.03
2019-04-01T03:32:29.636Z,12.37
2019-04-01T03:34:59.738Z,12.00
2019-04-01T03:37:28.619Z,11.15
2019-04-01T03:39:57.538Z,10.63
2019-04-01T03:42:26.430Z,12.53
2019-04-01T03:44:55.647Z,10.60
2019-04-01T03:47:24.827Z,12.18
2019-04-01T03:49:53.925Z,11.53
2019-04-01T03:52:22.817Z,12.80
2019-04-01T03:54:51.577Z,12.30
2019-04-01T03:57:20.601Z,13.22
2019-04-01T03:59:49.697Z,11.35
2019-04-01T04:02:18.589Z,10.90
2019-04-01T04:04:47.457Z,10.20
2019-04-01T04:07:16.455Z,10.30
2019-04-01T04:09:45.471Z,11.33
2019-04-01T04:12:14.363Z,12.82
2019-04-01T04:14:43.254Z,10.90
2019-04-01T04:17:12.145Z,11.12
2019-04-01T04:19:41.016Z,11.35
2019-04-01T04:22:09.934Z,10.30
2019-04-01T04:24:38.798Z,11.43
2019-04-01T04:27:11.127Z,11.73
2019-04-01T04:29:38.213Z,10.80
2019-04-01T04:32:07.087Z,10.63
2019-04-01T04:34:36.219Z,11.28
2019-04-01T04:37:05.063Z,10.75
2019-04-01T04:39:33.901Z,11.08
2019-04-01T04:42:02.780Z,11.38
2019-04-01T04:44:31.800Z,10.53
2019-04-01T04:47:00.690Z,10.10
2019-04-01T04:49:29.650Z,9.70
2019-04-01T04:51:58.448Z,10.95
2019-04-01T04:54:27.415Z,9.65
2019-04-01T04:56:56.439Z,10.60
2019-04-01T04:59:25.353Z,9.48
2019-04-01T05:01:54.250Z,10.45
2019-04-01T05:04:23.115Z,10.53
2019-04-01T05:06:52.007Z,10.48
2019-04-01T05:09:21.127Z,10.32
2019-04-01T05:11:50.224Z,10.25
2019-04-01T05:14:19.197Z,11.57
2019-04-01T05:16:48.001Z,10.68
2019-04-01T05:19:16.906Z,10.15
2019-04-01T05:21:46.413Z,9.73
2019-04-01T05:24:15.913Z,10.43
2019-04-01T05:26:45.950Z,10.45
2019-04-01T05:29:15.828Z,10.18
2019-04-01T05:31:46.859Z,10.78
2019-04-01T05:34:17.627Z,11.20
2019-04-01T05:36:47.415Z,11.65
2019-04-01T05:39:16.814Z,10.72
2019-04-01T05:41:45.704Z,9.43
2019-04-01T05:44:15.031Z,11.88
2019-04-01T05:46:44.336Z,10.60
2019-04-01T05:49:13.121Z,10.80
2019-04-01T05:51:42.632Z,11.65
2019-04-01T05:54:11.525Z,12.93
2019-04-01T05:56:40.285Z,15.03
2019-04-01T05:59:09.280Z,14.30
2019-04-01T06:01:39.709Z,13.93
2019-04-01T06:04:08.621Z,12.33
2019-04-01T06:06:37.828Z,13.27
2019-04-01T06:09:08.453Z,11.00
2019-04-01T06:11:37.540Z,10.63
2019-04-01T06:14:07.450Z,9.10
2019-04-01T06:16:36.470Z,9.77
2019-04-01T06:19:06.063Z,9.07
2019-04-01T06:21:35.261Z,9.43
2019-04-01T06:24:04.542Z,9.97
2019-04-01T06:26:33.539Z,8.47
2019-04-01T06:29:02.573Z,8.87
2019-04-01T06:31:31.526Z,8.40
2019-04-01T06:34:00.428Z,7.13
2019-04-01T06:36:29.448Z,8.73
2019-04-01T06:38:58.337Z,7.60
2019-04-01T06:41:27.434Z,5.70
2019-04-01T06:43:56.301Z,5.90
2019-04-01T06:46:25.189Z,5.23
2019-04-01T06:48:54.952Z,5.63
2019-04-01T06:51:23.883Z,4.53
2019-04-01T06:53:52.788Z,4.50
2019-04-01T06:56:22.696Z,5.40
2019-04-01T06:58:51.519Z,5.17
2019-04-01T07:01:20.822Z,5.40
2019-04-01T07:03:49.714Z,3.87
2019-04-01T07:06:18.608Z,4.43
2019-04-01T07:08:47.992Z,4.27
2019-04-01T07:11:17.629Z,4.40
2019-04-01T07:13:46.510Z,3.20
2019-04-01T07:16:16.280Z,4.57
2019-04-01T07:18:45.427Z,4.47
2019-04-01T07:21:14.415Z,4.50
2019-04-01T07:23:43.306Z,5.50
2019-04-01T07:26:12.182Z,4.63
2019-04-01T07:28:41.276Z,3.93
2019-04-01T07:31:10.040Z,4.87
2019-04-01T07:33:38.845Z,4.00
2019-04-01T07:36:07.968Z,5.17
2019-04-01T07:38:36.718Z,4.43
2019-04-01T07:41:05.576Z,5.40
2019-04-01T07:43:34.411Z,5.40
2019-04-01T07:46:03.510Z,4.77
2019-04-01T07:48:32.571Z,5.43
2019-04-01T07:51:01.444Z,4.13
2019-04-01T07:53:30.425Z,4.70
2019-04-01T07:56:02.394Z,5.37
2019-04-01T07:58:30.264Z,4.90
2019-04-01T08:00:59.348Z,4.53
2019-04-01T08:03:28.211Z,4.83
2019-04-01T08:05:57.339Z,4.50
2019-04-01T08:08:26.231Z,5.63
2019-04-01T08:10:55.110Z,4.67
2019-04-01T08:13:24.015Z,5.10
2019-04-01T08:15:52.903Z,4.40
2019-04-01T08:18:21.834Z,4.70
2019-04-01T08:20:50.891Z,5.27
2019-04-01T08:23:19.769Z,5.30
2019-04-01T08:25:48.874Z,5.50
2019-04-01T08:28:19.071Z,5.00
2019-04-01T08:30:47.968Z,5.23
2019-04-01T08:33:17.104Z,4.77
2019-04-01T08:35:46.577Z,5.80
2019-04-01T08:38:15.473Z,4.40
2019-04-01T08:40:44.386Z,4.97
2019-04-01T08:43:13.484Z,4.73
2019-04-01T08:45:42.375Z,5.20
2019-04-01T08:48:11.474Z,5.90
2019-04-01T08:50:40.312Z,5.77
2019-04-01T08:53:09.256Z,4.90
2019-04-01T08:55:38.570Z,4.70
2019-04-01T08:58:07.654Z,5.57
2019-04-01T09:00:36.789Z,5.23
2019-04-01T09:03:05.655Z,5.20
2019-04-01T09:05:34.469Z,7.00
2019-04-01T09:08:03.404Z,5.13
2019-04-01T09:10:32.297Z,5.60
2019-04-01T09:13:01.558Z,6.67
2019-04-01T09:15:31.738Z,5.13
2019-04-01T09:18:00.637Z,5.43
2019-04-01T09:20:31.324Z,4.97
2019-04-01T09:23:00.257Z,6.10
2019-04-01T09:25:29.017Z,6.10
2019-04-01T09:27:57.916Z,5.73
2019-04-01T09:30:26.800Z,6.83
2019-04-01T09:32:55.824Z,6.20
2019-04-01T09:35:24.635Z,6.03
2019-04-01T09:37:53.478Z,6.47
2019-04-01T09:40:22.371Z,6.30
2019-04-01T09:42:52.350Z,4.57
2019-04-01T09:45:21.178Z,6.20
2019-04-01T09:47:50.303Z,5.83
2019-04-01T09:50:19.606Z,5.77
2019-04-01T09:52:48.496Z,5.50
2019-04-01T09:55:18.823Z,5.80
2019-04-01T09:57:47.716Z,5.90
2019-04-01T10:00:17.323Z,6.10
2019-04-01T10:02:46.184Z,6.37
2019-04-01T10:05:15.855Z,7.47
2019-04-01T10:07:44.849Z,7.17
2019-04-01T10:10:14.352Z,6.07
2019-04-01T10:12:43.318Z,5.93
2019-04-01T10:15:12.664Z,5.67
2019-04-01T10:17:41.719Z,7.77
2019-04-01T10:20:11.084Z,6.93
2019-04-01T10:22:40.565Z,7.40
2019-04-01T10:25:09.414Z,8.77
2019-04-01T10:27:38.523Z,6.50
2019-04-01T10:30:09.863Z,7.40
2019-04-01T10:32:38.738Z,7.20
2019-04-01T10:35:08.738Z,6.43
2019-04-01T10:37:37.642Z,7.23
2019-04-01T10:40:08.045Z,7.87
2019-04-01T10:42:36.972Z,7.37
2019-04-01T10:45:08.687Z,7.20
2019-04-01T10:47:37.649Z,6.13
2019-04-01T10:50:07.943Z,6.83
2019-04-01T10:52:36.876Z,7.63
2019-04-01T10:55:07.058Z,7.50
2019-04-01T10:57:35.914Z,8.03
2019-04-01T11:00:07.694Z,6.57
2019-04-01T11:02:36.541Z,7.30
2019-04-01T11:05:09.154Z,7.77
2019-04-01T11:07:37.989Z,7.70
2019-04-01T11:10:11.427Z,7.10
2019-04-01T11:12:39.642Z,7.93
2019-04-01T11:15:08.976Z,7.63
2019-04-01T11:17:37.835Z,7.70
2019-04-01T11:20:08.058Z,8.00
2019-04-01T11:22:37.212Z,6.87
2019-04-01T11:25:09.805Z,7.40
2019-04-01T11:27:38.637Z,7.87
2019-04-01T11:30:08.345Z,8.40
2019-04-01T11:32:39.364Z,7.13
2019-04-01T11:35:09.618Z,7.20
2019-04-01T11:37:38.625Z,6.83
2019-04-01T11:40:11.265Z,6.60
2019-04-01T11:42:40.878Z,8.00
2019-04-01T11:45:10.423Z,7.07
2019-04-01T11:47:39.350Z,7.10
2019-04-01T11:50:08.328Z,7.57
2019-04-01T11:52:38.134Z,7.27
2019-04-01T11:55:09.041Z,7.03
2019-04-01T11:57:38.822Z,6.67
2019-04-01T12:00:13.257Z,6.73
2019-04-01T12:02:42.797Z,7.63
2019-04-01T12:05:11.689Z,7.87
2019-04-01T12:07:40.584Z,7.80
2019-04-01T12:10:09.970Z,7.50
2019-04-01T12:12:38.847Z,7.27
2019-04-01T12:15:11.675Z,7.37
2019-04-01T12:17:41.584Z,7.03
2019-04-01T12:20:10.058Z,9.10
2019-04-01T12:22:40.576Z,6.03
2019-04-01T12:25:09.703Z,7.30
2019-04-01T12:27:38.677Z,6.77
2019-04-01T12:30:07.574Z,7.27
2019-04-01T12:32:38.083Z,6.40
2019-04-01T12:35:07.607Z,8.27
2019-04-01T12:37:36.455Z,7.50
2019-04-01T12:40:07.336Z,7.43
2019-04-01T12:42:36.438Z,8.23
2019-04-01T12:45:06.982Z,7.77
2019-04-01T12:47:36.267Z,7.23
2019-04-01T12:50:06.853Z,8.53
2019-04-01T12:52:35.890Z,8.40
2019-04-01T12:57:48.403Z,7.63
2019-04-01T13:00:17.679Z,8.00
2019-04-01T13:02:46.615Z,6.70
2019-04-01T13:05:15.382Z,6.60
2019-04-01T13:07:44.284Z,7.03
2019-04-01T13:10:13.173Z,7.93
2019-04-01T13:12:41.980Z,9.07
2019-04-01T13:15:12.457Z,6.80
2019-04-01T13:17:41.814Z,6.87
2019-04-01T13:20:10.908Z,7.67
2019-04-01T13:22:39.792Z,7.13
2019-04-01T13:25:09.309Z,7.40
2019-04-01T13:27:38.196Z,8.63
2019-04-01T13:30:08.077Z,7.80
2019-04-01T13:32:37.004Z,8.23
2019-04-01T13:35:07.131Z,7.00
2019-04-01T13:37:36.018Z,7.43
2019-04-01T13:40:05.731Z,7.27
2019-04-01T13:42:34.604Z,6.17
2019-04-01T13:45:03.641Z,6.93
2019-04-01T13:47:33.634Z,7.43
2019-04-01T13:50:03.754Z,8.47
2019-04-01T13:52:33.104Z,7.00
2019-04-01T13:55:02.359Z,7.60
2019-04-01T13:57:31.233Z,6.77
2019-04-01T14:00:00.343Z,5.83
2019-04-01T14:02:31.025Z,8.37
2019-04-01T14:04:59.796Z,8.30
2019-04-01T14:07:28.862Z,8.00
2019-04-01T14:09:57.972Z,9.30
2019-04-01T14:12:27.060Z,7.93
2019-04-01T14:14:56.158Z,8.50
2019-04-01T14:17:25.021Z,7.67
2019-04-01T14:19:53.934Z,8.17
2019-04-01T14:22:23.557Z,7.63
2019-04-01T14:24:52.455Z,7.90
2019-04-01T14:27:21.325Z,7.17
2019-04-01T14:29:50.207Z,6.90
2019-04-01T14:32:19.169Z,7.57
2019-04-01T14:34:50.370Z,7.77
2019-04-01T14:37:25.609Z,8.60
2019-04-01T14:39:50.474Z,7.23
2019-04-01T14:42:19.358Z,8.07
2019-04-01T14:44:58.940Z,7.37
2019-04-01T14:47:28.338Z,8.00
2019-04-01T14:49:57.439Z,8.00
2019-04-01T14:52:32.612Z,7.50
2019-04-01T14:54:57.267Z,8.90
2019-04-01T14:57:26.424Z,8.43
2019-04-01T14:59:56.298Z,8.17
2019-04-01T15:02:25.582Z,6.77
2019-04-01T15:04:54.680Z,7.07
2019-04-01T15:07:23.774Z,8.27
2019-04-01T15:09:52.873Z,8.40
2019-04-01T15:12:21.973Z,7.90
2019-04-01T15:14:51.065Z,7.80
2019-04-01T15:17:20.166Z,8.03
2019-04-01T15:19:49.260Z,7.40
2019-04-01T15:22:18.561Z,8.33
2019-04-01T15:24:47.656Z,8.07
2019-04-01T15:27:16.764Z,8.27
2019-04-01T15:29:45.854Z,8.20
2019-04-01T15:32:14.899Z,9.07
2019-04-01T15:34:44.070Z,8.17
2019-04-01T15:37:13.143Z,7.60
2019-04-01T15:39:42.240Z,8.23
2019-04-01T15:42:11.336Z,8.03
2019-04-01T15:44:41.254Z,7.03
2019-04-01T15:47:11.984Z,6.97
2019-04-01T15:49:41.411Z,8.23
2019-04-01T15:52:10.590Z,7.90
2019-04-01T15:54:39.699Z,7.30
2019-04-01T15:57:10.754Z,8.30
2019-04-01T15:59:39.929Z,7.83
2019-04-01T16:02:09.399Z,8.03
2019-04-01T16:04:38.531Z,6.27
2019-04-01T16:07:07.841Z,8.03
2019-04-01T16:09:36.768Z,7.27
2019-04-01T16:12:05.924Z,5.77
2019-04-01T16:14:34.956Z,8.13
2019-04-01T16:17:05.191Z,7.93
2019-04-01T16:19:34.376Z,7.97
2019-04-01T16:22:03.590Z,7.67
2019-04-01T16:24:33.050Z,8.33
2019-04-01T16:27:04.477Z,7.90
2019-04-01T16:29:33.698Z,8.33
2019-04-01T16:32:02.799Z,7.40
2019-04-01T16:34:31.991Z,6.37
2019-04-01T16:37:00.949Z,8.27
2019-04-01T16:39:30.279Z,5.87
2019-04-01T16:41:59.493Z,7.30
2019-04-01T16:44:29.501Z,7.90
2019-04-01T16:46:58.627Z,7.83
2019-04-01T16:49:29.236Z,7.03
2019-04-01T16:51:58.209Z,7.20
2019-04-01T16:54:27.431Z,7.27
2019-04-01T16:56:56.526Z,7.30
2019-04-01T16:59:25.827Z,6.80
2019-04-01T17:01:57.587Z,7.50
2019-04-01T17:04:25.585Z,7.40
2019-04-01T17:06:54.966Z,7.43
2019-04-01T17:09:24.126Z,7.00
2019-04-01T17:11:54.794Z,7.20
2019-04-01T17:14:24.439Z,5.87
2019-04-01T17:16:54.014Z,6.60
2019-04-01T17:19:23.310Z,6.00
2019-04-01T17:21:52.613Z,6.90
2019-04-01T17:24:21.915Z,6.80
2019-04-01T17:27:05.667Z,6.33
2019-04-01T17:29:34.717Z,5.90
2019-04-01T17:32:04.194Z,6.57
2019-04-01T17:34:33.258Z,6.13
2019-04-01T17:37:02.574Z,7.27
2019-04-01T17:39:31.654Z,6.20
2019-04-01T17:42:00.777Z,6.30
2019-04-01T17:44:30.051Z,6.00
2019-04-01T17:46:59.350Z,6.23
2019-04-01T17:49:30.239Z,5.80
2019-04-01T17:52:00.216Z,6.40
2019-04-01T17:54:30.742Z,5.97
2019-04-01T17:57:01.194Z,5.50
2019-04-01T17:59:30.377Z,6.13
2019-04-01T18:02:13.390Z,6.00
2019-04-01T18:04:42.657Z,6.40
2019-04-01T18:07:14.655Z,5.53
2019-04-01T18:09:44.187Z,5.60
2019-04-01T18:12:14.614Z,5.77
2019-04-01T18:14:44.798Z,6.07
2019-04-01T18:17:14.027Z,5.63
2019-04-01T18:19:43.517Z,5.87
2019-04-01T18:22:12.822Z,6.43
2019-04-01T18:24:42.317Z,6.10
2019-04-01T18:27:15.124Z,6.03
2019-04-01T18:29:46.175Z,5.97
2019-04-01T18:32:15.348Z,6.00
2019-04-01T18:34:44.652Z,6.67
2019-04-01T18:37:14.130Z,10.93
2019-04-01T18:39:48.401Z,6.63
2019-04-01T18:42:14.194Z,6.27
2019-04-01T18:44:43.478Z,5.50
2019-04-01T18:47:12.632Z,5.87
2019-04-01T18:49:41.894Z,6.63
2019-04-01T18:52:10.991Z,6.07
2019-04-01T18:54:40.601Z,5.17
2019-04-01T18:57:12.693Z,5.13
2019-04-01T18:59:43.303Z,5.43
2019-04-01T19:02:15.190Z,5.60
2019-04-01T19:04:45.589Z,5.53
2019-04-01T19:07:17.762Z,5.30
2019-04-01T19:09:47.067Z,5.53
2019-04-01T19:12:16.451Z,5.53
2019-04-01T19:14:45.909Z,5.87
2019-04-01T19:17:15.577Z,5.63
2019-04-01T19:19:48.603Z,5.17
2019-04-01T19:22:18.484Z,5.53
2019-04-01T19:24:47.782Z,5.87
2019-04-01T19:27:18.411Z,6.03
2019-04-01T19:29:47.615Z,4.97
2019-04-01T19:32:17.129Z,4.93
2019-04-01T19:34:46.333Z,5.83
2019-04-01T19:37:18.065Z,5.53
2019-04-01T19:39:46.461Z,5.43
2019-04-01T19:42:15.556Z,5.53
2019-04-01T19:44:45.159Z,4.43
2019-04-01T19:47:14.367Z,5.37
2019-04-01T19:49:43.553Z,5.33
2019-04-01T19:52:12.762Z,4.60
2019-04-01T19:54:41.860Z,5.23
2019-04-01T19:57:11.399Z,5.17
2019-04-01T19:59:40.803Z,4.90
2019-04-01T20:02:10.379Z,4.83
2019-04-01T20:04:40.163Z,5.93
2019-04-01T20:07:09.226Z,4.67
2019-04-01T20:09:38.227Z,5.13
2019-04-01T20:12:07.787Z,4.97
2019-04-01T20:14:37.295Z,4.57
2019-04-01T20:17:06.617Z,4.40
2019-04-01T20:19:35.827Z,5.27
2019-04-01T20:22:05.137Z,4.07
2019-04-01T20:24:34.168Z,5.43
2019-04-01T20:27:03.241Z,4.43
2019-04-01T20:29:33.105Z,4.27
2019-04-01T20:32:16.294Z,4.00
2019-04-01T20:34:34.165Z,5.33
2019-04-01T20:37:03.117Z,4.70
2019-04-01T20:39:32.160Z,4.43
2019-04-01T20:42:01.254Z,4.90
2019-04-01T20:44:30.553Z,4.50
2019-04-01T20:46:59.574Z,3.50
2019-04-01T20:49:29.358Z,4.17
2019-04-01T20:51:59.481Z,4.50
2019-04-01T20:54:28.578Z,3.30
2019-04-01T20:56:57.806Z,4.23
2019-04-01T20:59:27.386Z,4.37
2019-04-01T21:01:56.488Z,3.60
2019-04-01T21:04:26.949Z,4.17
2019-04-01T21:06:56.228Z,4.00
2019-04-01T21:09:25.412Z,4.23
2019-04-01T21:11:54.612Z,4.20
2019-04-01T21:14:23.922Z,4.83
2019-04-01T21:16:52.804Z,4.47
2019-04-01T21:19:21.903Z,3.60
2019-04-01T21:21:50.763Z,4.27
2019-04-01T21:24:19.890Z,4.60
2019-04-01T21:26:49.063Z,3.93
2019-04-01T21:29:18.083Z,4.30
2019-04-01T21:31:47.159Z,4.67
2019-04-01T21:34:17.101Z,3.50
2019-04-01T21:36:45.988Z,4.13
2019-04-01T21:39:14.879Z,4.20
2019-04-01T21:41:43.771Z,3.90
2019-04-01T21:44:12.637Z,4.10
2019-04-01T21:46:43.008Z,4.27
2019-04-01T21:49:12.361Z,3.93
2019-04-01T21:51:42.225Z,4.27
2019-04-01T21:54:11.099Z,3.63
2019-04-01T21:56:40.201Z,4.30
2019-04-01T21:59:09.088Z,4.17
2019-04-01T22:01:38.182Z,3.53
2019-04-01T22:04:07.153Z,4.07
2019-04-01T22:06:36.171Z,3.63
2019-04-01T22:09:08.868Z,3.67
2019-04-01T22:11:37.735Z,3.73
2019-04-01T22:14:06.744Z,3.80
2019-04-01T22:16:35.839Z,3.37
2019-04-01T22:19:04.649Z,4.10
2019-04-01T22:21:34.714Z,4.20
2019-04-01T22:24:04.276Z,3.43
2019-04-01T22:26:33.449Z,4.30
2019-04-01T22:29:02.571Z,4.20
2019-04-01T22:31:31.389Z,3.37
2019-04-01T22:34:00.332Z,4.47
2019-04-01T22:36:31.283Z,3.87
2019-04-01T22:38:59.725Z,3.63
2019-04-01T22:41:29.919Z,3.30
2019-04-01T22:43:58.955Z,3.43
2019-04-01T22:46:27.862Z,3.13
2019-04-01T22:48:56.757Z,3.90
2019-04-01T22:51:25.646Z,3.30
2019-04-01T22:53:54.542Z,2.93
2019-04-01T22:56:23.638Z,3.47
2019-04-01T22:58:52.534Z,3.40
2019-04-01T23:01:21.418Z,3.40
2019-04-01T23:03:50.310Z,3.53
2019-04-01T23:06:19.279Z,3.27
2019-04-01T23:08:48.304Z,2.87
2019-04-01T23:11:17.178Z,3.37
2019-04-01T23:13:46.057Z,3.30
2019-04-01T23:16:14.976Z,3.30
2019-04-01T23:18:43.813Z,3.60
2019-04-01T23:21:13.722Z,3.37
2019-04-01T23:23:42.881Z,3.60
2019-04-01T23:26:11.733Z,3.27
2019-04-01T23:28:40.877Z,3.70
2019-04-01T23:31:09.763Z,3.07
2019-04-01T23:33:38.622Z,2.80
2019-04-01T23:36:07.546Z,3.30
2019-04-01T23:38:36.666Z,3.50
2019-04-01T23:41:07.550Z,3.30
2019-04-01T23:43:36.479Z,3.60
2019-04-01T23:46:05.309Z,3.33
2019-04-01T23:48:34.170Z,2.70
2019-04-01T23:51:02.961Z,3.67
2019-04-01T23:53:31.835Z,3.13
2019-04-01T23:56:00.934Z,3.60
2019-04-01T23:58:29.823Z,3.53
